Time;durP1;ratioP1;P1;durP2;ratioP2;P2;SDS_P1;SDS_P2;PMS_P1;PMS_P2;Temp;Humidity;BMP_temperature;BMP_pressure;BME280_temperature;BME280_humidity;BME280_pressure;Samples;Min_cycle;Max_cycle;Signal;HPM_P1;HPM_P2
2022/06/30 00:01:45;;;;;;;7.10;4.13;;;;;;;;;;5111501;28;20035;-52
2022/06/30 00:04:11;;;;;;;6.65;4.38;;;;;;;;;;5115481;27;20034;-52
2022/06/30 00:06:38;;;;;;;13.13;4.40;;;;;;;;;;5115209;28;20028;-53
2022/06/30 00:09:04;;;;;;;8.63;4.50;;;;;;;;;;5114970;28;20031;-52
2022/06/30 00:11:30;;;;;;;8.35;5.00;;;;;;;;;;5115030;27;20118;-52
2022/06/30 00:13:57;;;;;;;6.00;4.30;;;25.80;99.90;;;;;;5117477;28;20027;-52
2022/06/30 00:16:23;;;;;;;5.80;4.18;;;26.00;99.90;;;;;;5112446;27;20039;-51
2022/06/30 00:18:48;;;;;;;6.55;4.18;;;26.00;99.90;;;;;;5113003;28;20024;-53
2022/06/30 00:21:14;;;;;;;6.47;4.13;;;25.90;99.90;;;;;;5114265;28;20386;-52
2022/06/30 00:23:40;;;;;;;10.13;4.75;;;25.90;99.90;;;;;;5111365;28;20104;-52
2022/06/30 00:26:06;;;;;;;10.43;5.20;;;25.80;99.90;;;;;;5112579;28;20089;-52
2022/06/30 00:28:32;;;;;;;9.20;4.57;;;25.90;99.90;;;;;;5114333;27;20062;-53
2022/06/30 00:30:58;;;;;;;7.80;4.82;;;25.90;99.90;;;;;;5113769;28;20088;-53
2022/06/30 00:33:24;;;;;;;12.85;5.03;;;26.00;99.90;;;;;;5112925;28;20027;-52
2022/06/30 00:35:50;;;;;;;7.40;4.82;;;25.90;99.90;;;;;;5111911;28;20097;-52
2022/06/30 00:38:16;;;;;;;9.38;4.40;;;26.00;99.90;;;;;;5113244;28;20035;-52
2022/06/30 00:40:45;;;;;;;6.88;4.80;;;25.90;99.90;;;;;;5113745;28;20131;-53
2022/06/30 00:43:12;;;;;;;9.27;4.68;;;26.00;99.90;;;;;;5094319;28;20474;-54
2022/06/30 00:45:45;;;;;;;7.80;5.00;;;26.00;99.90;;;;;;5111612;28;20517;-52
2022/06/30 00:48:11;;;;;;;6.40;4.32;;;25.80;99.90;;;;;;5073736;28;20051;-54
2022/06/30 00:50:38;;;;;;;5.57;4.60;;;25.50;99.90;;;;;;5113085;27;20050;-53
2022/06/30 00:53:04;;;;;;;7.07;4.88;;;25.40;99.90;;;;;;5120251;27;20047;-52
2022/06/30 00:55:32;;;;;;;6.40;4.38;;;25.40;99.90;;;;;;5117571;27;20038;-53
2022/06/30 00:58:01;;;;;;;10.93;4.30;;;25.50;99.90;;;;;;5117538;27;20039;-52
2022/06/30 01:00:38;;;;;;;10.43;4.70;;;25.50;99.90;;;;;;5118073;27;20036;-53
2022/06/30 01:03:05;;;;;;;9.68;5.32;;;;;;;;;;5111512;27;20486;-53
2022/06/30 01:05:31;;;;;;;7.50;4.57;;;;;;;;;;5073094;28;20028;-53
2022/06/30 01:07:58;;;;;;;8.52;4.97;;;24.80;99.90;;;;;;5108654;27;20036;-52
2022/06/30 01:13:08;;;;;;;10.57;5.10;;;24.60;99.90;;;;;;5113919;27;20042;-53
2022/06/30 01:15:34;;;;;;;6.95;4.57;;;24.70;99.90;;;;;;5120189;27;20387;-52
2022/06/30 01:18:00;;;;;;;8.80;4.35;;;24.70;99.90;;;;;;5117195;27;20027;-52
2022/06/30 01:20:31;;;;;;;10.38;5.35;;;;;;;;;;5115578;27;20028;-52
2022/06/30 01:22:57;;;;;;;6.85;4.32;;;;;;;;;;5116943;27;20061;-52
2022/06/30 01:25:24;;;;;;;8.90;4.82;;;;;;;;;;5115965;27;20043;-53
2022/06/30 01:27:51;;;;;;;7.53;4.75;;;24.70;99.90;;;;;;5117496;27;20097;-53
2022/06/30 01:30:16;;;;;;;8.85;4.88;;;24.40;99.90;;;;;;5114467;27;20518;-55
2022/06/30 01:32:42;;;;;;;7.05;4.03;;;24.50;99.90;;;;;;5119841;27;20032;-52
2022/06/30 01:35:09;;;;;;;7.05;4.63;;;24.50;99.90;;;;;;5114366;27;20551;-53
2022/06/30 01:37:49;;;;;;;6.68;4.30;;;;;;;;;;5115834;27;20039;-52
2022/06/30 01:40:15;;;;;;;8.93;4.88;;;;;;;;;;5118156;27;20474;-52
2022/06/30 01:42:41;;;;;;;5.72;4.30;;;;;;;;;;5112329;28;20116;-54
2022/06/30 01:45:08;;;;;;;9.85;4.38;;;;;;;;;;5117201;27;20035;-52
2022/06/30 01:47:35;;;;;;;7.40;5.07;;;24.00;99.90;;;;;;5084902;28;20032;-54
2022/06/30 01:50:06;;;;;;;6.30;4.50;;;24.00;99.90;;;;;;5113031;27;20131;-52
2022/06/30 01:52:31;;;;;;;7.57;4.63;;;24.20;99.90;;;;;;5111964;27;20027;-53
2022/06/30 01:54:57;;;;;;;8.13;4.18;;;24.00;99.90;;;;;;5112285;27;20387;-53
2022/06/30 01:57:23;;;;;;;7.85;4.25;;;24.20;99.90;;;;;;5114005;27;20136;-55
2022/06/30 01:59:49;;;;;;;5.28;4.30;;;24.10;99.90;;;;;;5094307;27;20066;-52
2022/06/30 02:02:14;;;;;;;8.93;4.93;;;23.90;99.90;;;;;;5117547;27;20028;-52
2022/06/30 02:04:53;;;;;;;6.90;4.30;;;24.10;99.90;;;;;;5116870;27;20024;-53
2022/06/30 02:07:20;;;;;;;7.10;4.65;;;23.90;99.90;;;;;;5116932;27;20035;-53
2022/06/30 02:09:50;;;;;;;8.18;4.07;;;23.90;99.90;;;;;;5120865;27;20031;-52
2022/06/30 02:15:02;;;;;;;6.10;4.90;;;23.80;99.90;;;;;;5119018;27;20390;-52
2022/06/30 02:17:28;;;;;;;5.75;4.45;;;23.90;99.90;;;;;;5114733;27;20043;-52
2022/06/30 02:19:54;;;;;;;6.55;4.43;;;24.10;99.90;;;;;;5113870;28;20027;-53
2022/06/30 02:22:20;;;;;;;7.93;4.68;;;24.10;99.90;;;;;;5130204;27;20093;-53
2022/06/30 02:24:46;;;;;;;8.88;4.30;;;24.20;99.90;;;;;;5114580;27;20085;-53
2022/06/30 02:27:12;;;;;;;6.45;4.53;;;24.40;99.90;;;;;;5119958;27;20427;-52
2022/06/30 02:29:38;;;;;;;4.90;4.35;;;24.30;99.90;;;;;;5118305;27;20046;-53
2022/06/30 02:32:04;;;;;;;6.47;4.72;;;24.10;99.90;;;;;;5119184;27;20471;-53
2022/06/30 02:34:30;;;;;;;5.00;4.50;;;24.10;99.90;;;;;;5071547;28;20168;-53
2022/06/30 02:36:56;;;;;;;9.50;5.00;;;24.00;99.90;;;;;;5117540;27;20036;-52
2022/06/30 02:39:22;;;;;;;5.68;4.80;;;24.00;99.90;;;;;;5129577;27;20046;-52
2022/06/30 02:41:48;;;;;;;7.32;5.07;;;24.40;99.90;;;;;;5112477;28;20061;-53
2022/06/30 02:44:14;;;;;;;8.77;5.45;;;24.10;99.90;;;;;;5119679;27;20463;-53
2022/06/30 02:46:40;;;;;;;5.75;4.90;;;24.20;99.90;;;;;;5115874;27;20028;-53
2022/06/30 02:49:06;;;;;;;7.85;6.03;;;24.30;99.90;;;;;;5095467;28;20035;-51
2022/06/30 02:51:32;;;;;;;7.50;5.05;;;24.40;99.90;;;;;;5026655;28;20054;-53
2022/06/30 02:53:58;;;;;;;7.38;4.78;;;24.20;99.90;;;;;;5076360;28;20054;-53
2022/06/30 02:56:24;;;;;;;8.98;5.60;;;24.20;99.90;;;;;;5118098;27;20043;-54
2022/06/30 02:58:50;;;;;;;7.78;5.20;;;24.00;99.90;;;;;;5118663;27;20027;-53
2022/06/30 03:01:16;;;;;;;6.65;4.90;;;24.20;99.90;;;;;;5115179;27;20038;-52
2022/06/30 03:03:42;;;;;;;7.18;5.40;;;;;;;;;;5113393;27;20465;-51
2022/06/30 03:06:08;;;;;;;8.25;5.53;;;23.50;99.90;;;;;;5110812;28;20047;-52
2022/06/30 03:08:34;;;;;;;7.97;5.22;;;;;;;;;;5113428;27;20028;-53
2022/06/30 03:10:59;;;;;;;7.18;5.53;;;23.40;99.90;;;;;;5114064;27;20035;-52
2022/06/30 03:13:25;;;;;;;6.07;4.93;;;23.40;99.90;;;;;;5112237;27;20106;-53
2022/06/30 03:15:51;;;;;;;8.45;5.03;;;23.20;99.90;;;;;;5115379;27;20061;-53
2022/06/30 03:18:17;;;;;;;7.43;4.78;;;23.50;99.90;;;;;;5097186;28;20483;-54
2022/06/30 03:20:43;;;;;;;7.22;5.47;;;23.70;99.90;;;;;;5097018;28;20043;-53
2022/06/30 03:23:09;;;;;;;9.13;5.60;;;23.70;99.90;;;;;;5090701;28;20040;-52
2022/06/30 03:25:35;;;;;;;7.90;5.88;;;23.80;99.90;;;;;;5091884;28;20079;-52
2022/06/30 03:28:02;;;;;;;6.25;4.82;;;23.70;99.90;;;;;;5092691;28;20043;-51
2022/06/30 03:30:28;;;;;;;7.47;4.93;;;23.80;99.90;;;;;;5097561;28;20023;-52
2022/06/30 03:32:53;;;;;;;9.65;5.93;;;23.60;99.90;;;;;;5094897;28;20051;-52
2022/06/30 03:35:19;;;;;;;7.03;5.35;;;23.40;99.90;;;;;;5096915;28;20028;-54
2022/06/30 03:37:46;;;;;;;9.25;5.35;;;23.70;99.90;;;;;;5094453;28;20548;-52
2022/06/30 03:40:12;;;;;;;5.20;4.70;;;23.70;99.90;;;;;;5113032;28;20044;-51
2022/06/30 03:42:38;;;;;;;6.68;4.80;;;23.70;99.90;;;;;;5094859;28;20059;-52
2022/06/30 03:45:05;;;;;;;6.40;4.72;;;23.70;99.90;;;;;;5095945;28;20075;-52
2022/06/30 03:47:30;;;;;;;5.43;4.88;;;23.80;99.90;;;;;;5078000;28;20036;-51
2022/06/30 03:49:56;;;;;;;7.13;4.80;;;23.80;99.90;;;;;;5108366;28;20130;-53
2022/06/30 03:52:22;;;;;;;7.30;5.15;;;23.90;99.90;;;;;;5113224;27;20067;-52
2022/06/30 03:54:48;;;;;;;7.10;5.60;;;24.10;99.90;;;;;;5117437;28;20042;-52
2022/06/30 03:57:14;;;;;;;7.30;5.55;;;23.90;99.90;;;;;;5117018;28;20038;-52
2022/06/30 03:59:40;;;;;;;9.88;6.13;;;23.80;99.90;;;;;;5116755;27;20040;-54
2022/06/30 04:02:06;;;;;;;6.30;5.70;;;23.90;99.90;;;;;;5109263;28;20028;-52
2022/06/30 04:04:32;;;;;;;7.63;5.70;;;23.90;99.90;;;;;;5119478;28;20024;-52
2022/06/30 04:06:58;;;;;;;16.77;6.10;;;24.00;99.90;;;;;;5111962;28;20481;-51
2022/06/30 04:09:24;;;;;;;7.25;5.38;;;24.10;99.90;;;;;;5113042;28;20028;-52
2022/06/30 04:11:50;;;;;;;8.15;5.70;;;24.00;99.90;;;;;;5110739;28;20028;-52
2022/06/30 04:14:16;;;;;;;10.48;6.43;;;24.00;99.90;;;;;;5113159;28;20030;-52
2022/06/30 04:16:42;;;;;;;11.85;5.80;;;24.00;99.90;;;;;;5113604;28;20040;-52
2022/06/30 04:19:07;;;;;;;9.52;5.68;;;24.10;99.90;;;;;;5115132;28;20031;-51
2022/06/30 04:21:33;;;;;;;7.95;5.53;;;24.20;99.90;;;;;;5120344;28;20466;-53
2022/06/30 04:23:59;;;;;;;8.10;4.97;;;24.30;99.90;;;;;;5115583;28;20180;-52
2022/06/30 04:26:25;;;;;;;13.65;5.93;;;24.50;99.90;;;;;;5120552;27;20054;-53
2022/06/30 04:28:51;;;;;;;7.03;5.03;;;24.60;99.90;;;;;;5108982;27;20112;-52
2022/06/30 04:34:00;;;;;;;8.05;5.68;;;24.70;99.90;;;;;;5118110;27;20112;-52
2022/06/30 04:36:26;;;;;;;9.85;5.63;;;24.90;99.90;;;;;;5122237;27;20065;-53
2022/06/30 04:38:58;;;;;;;12.45;6.90;;;24.90;99.90;;;;;;5117493;27;20477;-53
2022/06/30 04:41:24;;;;;;;11.88;5.43;;;24.90;99.90;;;;;;5112905;27;20020;-53
2022/06/30 04:43:55;;;;;;;8.45;5.65;;;25.00;99.90;;;;;;5121875;27;20168;-53
2022/06/30 04:46:21;;;;;;;11.88;6.10;;;25.20;99.90;;;;;;5118458;27;20032;-52
2022/06/30 04:48:48;;;;;;;8.27;6.57;;;25.20;99.90;;;;;;5123333;27;20031;-53
2022/06/30 04:51:15;;;;;;;10.18;5.38;;;25.30;99.90;;;;;;5114997;27;20063;-54
2022/06/30 04:53:40;;;;;;;8.02;5.72;;;25.30;99.90;;;;;;5119447;27;20032;-52
2022/06/30 04:56:08;;;;;;;8.18;5.43;;;25.40;99.90;;;;;;5115229;28;20039;-53
2022/06/30 04:58:33;;;;;;;19.08;6.88;;;25.40;99.90;;;;;;5120652;27;20034;-52
2022/06/30 05:01:00;;;;;;;8.10;5.28;;;25.70;99.90;;;;;;5117390;27;20032;-53
2022/06/30 05:03:26;;;;;;;6.90;5.97;;;25.80;99.90;;;;;;5122802;27;20035;-54
2022/06/30 05:05:53;;;;;;;9.13;6.38;;;25.60;99.90;;;;;;5120791;27;20035;-52
2022/06/30 05:08:19;;;;;;;7.53;5.80;;;25.80;99.90;;;;;;5113966;27;20051;-53
2022/06/30 05:10:45;;;;;;;14.73;5.88;;;26.00;99.90;;;;;;5111981;28;20024;-53
2022/06/30 05:13:10;;;;;;;11.32;5.97;;;26.00;99.90;;;;;;5106827;28;20036;-53
2022/06/30 05:15:36;;;;;;;9.15;5.80;;;26.10;99.90;;;;;;5115341;27;20032;-52
2022/06/30 05:18:02;;;;;;;10.50;5.82;;;;;;;;;;5117083;27;20104;-52
2022/06/30 05:20:30;;;;;;;12.13;5.50;;;;;;;;;;5116066;27;20156;-52
2022/06/30 05:22:56;;;;;;;11.85;6.13;;;;;;;;;;5114107;27;20114;-54
2022/06/30 05:28:07;;;;;;;9.55;5.93;;;;;;;;;;5117336;27;20550;-54
2022/06/30 05:30:34;;;;;;;10.65;5.57;;;26.80;99.90;;;;;;5115315;27;20068;-52
2022/06/30 05:33:00;;;;;;;11.50;5.43;;;27.00;99.90;;;;;;5115147;28;20030;-55
2022/06/30 05:35:26;;;;;;;10.77;5.50;;;27.10;99.90;;;;;;5118422;27;20028;-52
2022/06/30 05:37:52;;;;;;;6.63;5.25;;;27.20;99.90;;;;;;5114692;27;20513;-52
2022/06/30 05:40:18;;;;;;;11.60;5.78;;;27.30;99.90;;;;;;5122833;27;20027;-53
2022/06/30 05:42:43;;;;;;;9.73;5.40;;;27.50;99.90;;;;;;5115527;27;20023;-52
2022/06/30 05:45:10;;;;;;;6.38;5.63;;;27.50;99.90;;;;;;5055697;28;20059;-53
2022/06/30 05:47:52;;;;;;;13.02;6.40;;;27.50;99.90;;;;;;5117515;27;20050;-54
2022/06/30 05:50:20;;;;;;;9.55;5.63;;;;;;;;;;5116075;27;20030;-52
2022/06/30 05:52:46;;;;;;;16.05;5.50;;;;;;;;;;5110851;28;20063;-52
2022/06/30 05:55:13;;;;;;;8.68;5.15;;;27.90;99.90;;;;;;5117031;27;20031;-53
2022/06/30 05:57:51;;;;;;;9.43;5.75;;;28.10;99.90;;;;;;5115257;27;20088;-53
2022/06/30 06:00:18;;;;;;;10.85;5.63;;;;;;;;;;5103559;28;20399;-54
2022/06/30 06:02:44;;;;;;;10.32;5.25;;;;;;;;;;5110941;27;20031;-52
2022/06/30 06:05:11;;;;;;;11.45;5.25;;;;;;;;;;5115557;27;20028;-52
2022/06/30 06:07:36;;;;;;;9.25;5.47;;;28.70;99.90;;;;;;5130630;27;20047;-55
2022/06/30 06:10:03;;;;;;;8.45;5.63;;;28.60;99.90;;;;;;5131804;27;20039;-53
2022/06/30 06:12:28;;;;;;;8.45;5.28;;;28.60;99.90;;;;;;5118868;27;20602;-53
2022/06/30 06:14:54;;;;;;;13.15;5.85;;;28.80;99.90;;;;;;5114922;27;20024;-52
2022/06/30 06:17:20;;;;;;;8.90;5.60;;;;;;;;;;5118472;27;20473;-52
2022/06/30 06:19:47;;;;;;;13.35;5.95;;;;;;;;;;5118332;27;20032;-54
2022/06/30 06:22:13;;;;;;;13.30;6.28;;;;;;;;;;5117749;27;20030;-53
2022/06/30 06:24:39;;;;;;;12.38;5.97;;;;;;;;;;5115720;27;20043;-57
2022/06/30 06:27:05;;;;;;;11.02;5.45;;;;;;;;;;5116909;27;20088;-52
2022/06/30 06:29:31;;;;;;;14.30;5.70;;;;;;;;;;5121075;27;20093;-53
2022/06/30 06:31:57;;;;;;;13.73;6.10;;;;;;;;;;5114620;27;20034;-55
2022/06/30 06:34:23;;;;;;;14.25;6.20;;;;;;;;;;5112624;28;20024;-53
2022/06/30 06:36:49;;;;;;;16.88;6.22;;;29.40;99.90;;;;;;5117293;27;20169;-53
2022/06/30 06:39:15;;;;;;;10.18;5.47;;;;;;;;;;5114347;27;20110;-53
2022/06/30 06:41:41;;;;;;;13.68;5.50;;;;;;;;;;5114534;27;20059;-51
2022/06/30 06:44:07;;;;;;;27.20;7.03;;;29.50;99.90;;;;;;5114761;27;20039;-58
2022/06/30 06:46:34;;;;;;;14.25;5.43;;;;;;;;;;5120146;27;20034;-52
2022/06/30 06:49:03;;;;;;;8.93;5.03;;;29.70;99.90;;;;;;5112456;27;20123;-55
2022/06/30 06:51:29;;;;;;;10.10;5.43;;;29.10;99.90;;;;;;5120774;27;20042;-54
2022/06/30 06:53:55;;;;;;;8.82;5.82;;;29.80;99.90;;;;;;5119443;27;21173;-56
2022/06/30 06:56:22;;;;;;;11.63;6.72;;;;;;;;;;5117723;27;20511;-54
2022/06/30 06:58:48;;;;;;;12.32;5.55;;;;;;;;;;5116923;27;20020;-56
2022/06/30 07:01:15;;;;;;;14.45;5.68;;;;;;;;;;5115005;27;20031;-55
2022/06/30 07:03:41;;;;;;;14.98;5.70;;;30.10;99.90;;;;;;5115751;27;20027;-54
2022/06/30 07:06:07;;;;;;;13.32;5.30;;;;;;;;;;5116394;27;20028;-56
2022/06/30 07:08:34;;;;;;;16.23;5.15;;;30.30;99.90;;;;;;5116237;27;20023;-51
2022/06/30 07:11:02;;;;;;;14.80;5.78;;;30.40;99.90;;;;;;5116437;27;20032;-53
2022/06/30 07:13:28;;;;;;;9.15;4.95;;;;;;;;;;5119208;27;20046;-53
2022/06/30 07:15:55;;;;;;;11.55;5.25;;;;;;;;;;5114142;27;20036;-54
2022/06/30 07:18:20;;;;;;;8.48;4.45;;;30.50;99.90;;;;;;5129810;27;20035;-54
2022/06/30 07:20:48;;;;;;;17.08;5.80;;;;;;;;;;5118904;27;20069;-53
2022/06/30 07:23:14;;;;;;;17.75;5.60;;;30.60;99.90;;;;;;5114898;27;20081;-54
2022/06/30 07:25:40;;;;;;;14.02;5.53;;;30.80;99.90;;;;;;5115526;27;20085;-54
2022/06/30 07:28:07;;;;;;;17.52;5.80;;;30.70;99.90;;;;;;5097864;28;20775;-54
2022/06/30 07:30:33;;;;;;;17.23;5.40;;;30.80;99.90;;;;;;5114213;27;20019;-52
2022/06/30 07:32:59;;;;;;;9.90;4.88;;;30.90;99.90;;;;;;5117790;27;20103;-55
2022/06/30 07:35:25;;;;;;;9.82;4.85;;;31.00;99.90;;;;;;5115572;27;20028;-53
2022/06/30 07:37:51;;;;;;;13.25;5.28;;;31.00;99.90;;;;;;5114652;27;20074;-53
2022/06/30 07:40:17;;;;;;;14.52;5.22;;;31.10;99.90;;;;;;5117672;27;20035;-52
2022/06/30 07:42:43;;;;;;;12.02;4.80;;;31.00;99.90;;;;;;5113542;28;20035;-54
2022/06/30 07:45:10;;;;;;;13.20;5.07;;;;;;;;;;5134499;27;20040;-55
2022/06/30 07:47:39;;;;;;;13.82;5.40;;;;;;;;;;5113405;27;20027;-53
2022/06/30 07:50:06;;;;;;;17.88;5.82;;;31.20;99.90;;;;;;5117587;28;20523;-55
2022/06/30 07:52:33;;;;;;;11.13;5.18;;;31.30;99.90;;;;;;5112902;28;20028;-56
2022/06/30 07:55:00;;;;;;;16.38;5.03;;;;;;;;;;5113945;28;20570;-53
2022/06/30 07:57:27;;;;;;;14.43;4.60;;;31.70;99.90;;;;;;5113780;28;20052;-56
2022/06/30 07:59:53;;;;;;;9.77;4.60;;;31.80;99.90;;;;;;5108183;28;20035;-55
2022/06/30 08:02:19;;;;;;;14.02;4.85;;;31.70;99.90;;;;;;5117571;27;20497;-52
2022/06/30 08:04:45;;;;;;;17.02;5.70;;;31.90;99.90;;;;;;5123530;27;20028;-56
2022/06/30 08:07:12;;;;;;;14.35;6.57;;;31.80;99.90;;;;;;5117772;27;20031;-55
2022/06/30 08:09:38;;;;;;;18.38;4.32;;;31.90;99.90;;;;;;5118985;27;20047;-56
2022/06/30 08:12:06;;;;;;;9.45;4.40;;;31.90;99.90;;;;;;5132568;27;20044;-52
2022/06/30 08:14:32;;;;;;;16.92;4.93;;;31.70;99.90;;;;;;5120163;27;20047;-55
2022/06/30 08:16:59;;;;;;;9.02;4.28;;;31.90;99.90;;;;;;5118822;27;20035;-53
2022/06/30 08:19:25;;;;;;;11.52;4.90;;;32.10;99.90;;;;;;5122998;27;20035;-53
2022/06/30 08:21:51;;;;;;;15.70;4.80;;;32.10;99.90;;;;;;5119959;27;20402;-52
2022/06/30 08:24:17;;;;;;;13.43;4.50;;;32.30;99.90;;;;;;5117394;27;20100;-55
2022/06/30 08:26:43;;;;;;;10.18;4.50;;;;;;;;;;5134469;27;20067;-54
2022/06/30 08:29:12;;;;;;;10.20;4.47;;;32.30;99.90;;;;;;5123328;27;20027;-54
2022/06/30 08:31:38;;;;;;;15.35;4.68;;;32.40;99.90;;;;;;5117877;27;20031;-54
2022/06/30 08:34:03;;;;;;;11.20;4.78;;;32.50;99.90;;;;;;5136154;27;20035;-53
2022/06/30 08:36:29;;;;;;;13.98;3.97;;;32.60;99.90;;;;;;5116409;27;20055;-55
2022/06/30 08:38:55;;;;;;;12.60;4.45;;;32.50;99.90;;;;;;5073355;27;20475;-55
2022/06/30 08:44:06;;;;;;;19.30;4.68;;;33.00;99.90;;;;;;5117180;27;20126;-56
2022/06/30 08:46:37;;;;;;;11.52;5.05;;;;;;;;;;5115546;27;20387;-56
2022/06/30 09:26:15;;;;;;;12.30;4.93;;;34.60;99.90;;;;;;5098850;27;20553;-54
2022/06/30 09:28:42;;;;;;;14.95;4.75;;;34.90;95.90;;;;;;5087585;28;20024;-55
2022/06/30 09:31:09;;;;;;;10.55;5.72;;;34.80;95.60;;;;;;5091528;28;20029;-56
2022/06/30 09:33:39;;;;;;;10.98;4.00;;;34.70;95.50;;;;;;5090365;28;20090;-56
2022/06/30 09:36:19;;;;;;;16.00;4.22;;;34.60;95.20;;;;;;5091847;28;20035;-56
2022/06/30 09:39:06;;;;;;;14.20;4.10;;;34.70;96.00;;;;;;5092581;28;20032;-55
2022/06/30 09:41:39;;;;;;;8.77;3.72;;;35.00;94.50;;;;;;5095212;28;20319;-53
2022/06/30 09:44:24;;;;;;;14.05;3.92;;;35.30;95.20;;;;;;5091926;28;20038;-53
2022/06/30 09:47:04;;;;;;;13.15;4.13;;;35.00;95.00;;;;;;5092260;28;20036;-54
2022/06/30 09:49:37;;;;;;;11.73;3.65;;;35.20;93.70;;;;;;5092786;28;20030;-58
2022/06/30 09:52:13;;;;;;;8.98;3.10;;;35.20;93.30;;;;;;5090232;28;20036;-57
2022/06/30 09:54:40;;;;;;;13.93;4.28;;;35.30;92.40;;;;;;5068381;28;20040;-58
2022/06/30 09:57:07;;;;;;;12.38;4.10;;;35.40;93.00;;;;;;5091500;28;20028;-57
2022/06/30 09:59:34;;;;;;;11.25;3.70;;;35.20;92.00;;;;;;5089376;28;20036;-59
2022/06/30 10:02:06;;;;;;;12.73;3.92;;;35.60;92.50;;;;;;5092874;28;20029;-57
2022/06/30 10:04:31;;;;;;;;;;;35.90;91.40;;;;;;5060290;28;20417;-58
2022/06/30 10:06:57;;;;;;;13.13;3.58;;;36.00;90.80;;;;;;5049717;28;19912;-58
2022/06/30 10:09:25;;;;;;;14.43;3.97;;;35.90;88.60;;;;;;5055108;28;20041;-58
2022/06/30 10:11:52;;;;;;;12.00;3.42;;;36.10;90.10;;;;;;5055722;28;20068;-58
2022/06/30 10:14:19;;;;;;;9.07;4.15;;;36.30;90.40;;;;;;5061271;28;20044;-58
2022/06/30 10:16:45;;;;;;;14.00;5.55;;;36.30;90.60;;;;;;5058038;28;20396;-57
2022/06/30 10:19:12;;;;;;;10.25;3.45;;;36.10;89.80;;;;;;5053212;28;20132;-58
2022/06/30 10:21:38;;;;;;;13.20;3.22;;;36.50;90.00;;;;;;5056696;28;20029;-58
2022/06/30 10:24:08;;;;;;;12.55;4.32;;;36.60;89.50;;;;;;5055205;28;20061;-59
2022/06/30 10:29:20;;;;;;;14.05;4.10;;;36.80;89.30;;;;;;5049312;28;20578;-58
2022/06/30 10:32:06;;;;;;;11.98;3.63;;;36.80;90.10;;;;;;5039167;28;20036;-58
2022/06/30 10:34:56;;;;;;;10.38;3.80;;;37.10;87.90;;;;;;5041958;28;20516;-58
2022/06/30 10:37:24;;;;;;;10.65;3.90;;;37.40;88.60;;;;;;5080584;28;20070;-58
2022/06/30 10:39:52;;;;;;;18.00;4.82;;;37.70;89.20;;;;;;5078301;28;20086;-58
2022/06/30 10:42:43;;;;;;;14.20;3.85;;;37.60;85.60;;;;;;5083452;28;20024;-58
2022/06/30 10:45:54;;;;;;;12.13;4.20;;;38.10;87.20;;;;;;5073146;28;20386;-57
2022/06/30 10:48:20;;;;;;;12.57;4.55;;;;;;;;;;5010354;28;20559;-58
2022/06/30 10:50:47;;;;;;;10.52;3.22;;;38.50;86.00;;;;;;5007423;28;20464;-58
2022/06/30 10:53:18;;;;;;;20.00;4.72;;;38.20;84.80;;;;;;5008754;28;20576;-59
2022/06/30 10:55:47;;;;;;;13.18;4.00;;;38.20;86.00;;;;;;5008175;28;20041;-58
2022/06/30 10:58:13;;;;;;;12.50;4.40;;;38.10;85.30;;;;;;5003439;28;20037;-58
2022/06/30 11:00:48;;;;;;;13.82;4.32;;;37.90;84.30;;;;;;5008902;28;20041;-58
2022/06/30 11:03:34;;;;;;;16.00;3.80;;;37.90;85.20;;;;;;4994022;28;20026;-58
2022/06/30 11:06:02;;;;;;;8.30;3.78;;;37.70;84.10;;;;;;5008606;28;20504;-58
2022/06/30 11:08:39;;;;;;;15.82;5.28;;;38.10;85.00;;;;;;5008135;28;20062;-58
2022/06/30 11:11:23;;;;;;;12.38;3.60;;;;;;;;;;4977962;28;20045;-58
2022/06/30 11:14:02;;;;;;;10.50;3.67;;;38.60;82.30;;;;;;5013013;28;20052;-59
2022/06/30 11:16:33;;;;;;;15.32;4.18;;;38.70;82.80;;;;;;5011277;28;20030;-59
2022/06/30 11:18:59;;;;;;;14.38;4.07;;;;;;;;;;5010750;28;20401;-58
2022/06/30 11:21:28;;;;;;;79.18;23.45;;;;;;;;;;5004343;28;20465;-57
2022/06/30 11:23:57;;;;;;;14.85;4.50;;;39.10;83.60;;;;;;5022489;28;20048;-58
2022/06/30 11:29:17;;;;;;;11.60;4.28;;;;;;;;;;5077430;28;20105;-58
2022/06/30 11:31:43;;;;;;;19.75;7.10;;;39.60;82.40;;;;;;5077889;28;20396;-58
2022/06/30 11:34:18;;;;;;;13.60;4.35;;;39.60;81.70;;;;;;5079351;28;20072;-58
2022/06/30 11:36:45;;;;;;;13.98;5.40;;;;;;;;;;5077635;28;20028;-57
2022/06/30 11:39:18;;;;;;;17.25;5.15;;;39.60;81.90;;;;;;5073669;28;20048;-57
2022/06/30 11:41:54;;;;;;;11.73;4.13;;;39.60;89.50;;;;;;5075941;28;20098;-57
2022/06/30 11:44:32;;;;;;;16.85;4.65;;;39.60;80.70;;;;;;5072120;28;20148;-58
2022/06/30 11:47:03;;;;;;;15.75;4.38;;;39.50;81.60;;;;;;5072634;28;20036;-58
2022/06/30 11:49:42;;;;;;;14.23;4.18;;;39.40;82.70;;;;;;5079100;28;20074;-57
2022/06/30 11:52:15;;;;;;;14.52;4.25;;;39.20;80.90;;;;;;5073938;28;20115;-58
2022/06/30 11:55:03;;;;;;;12.63;5.20;;;39.30;80.00;;;;;;5077902;28;20074;-58
2022/06/30 11:57:31;;;;;;;12.70;4.38;;;39.50;80.30;;;;;;5071710;28;20433;-59
2022/06/30 12:00:21;;;;;;;13.57;4.03;;;39.70;79.90;;;;;;5076923;28;20046;-58
2022/06/30 12:02:48;;;;;;;16.77;4.95;;;39.80;81.30;;;;;;5074498;28;20080;-58
2022/06/30 12:05:22;;;;;;;16.20;4.40;;;39.80;79.70;;;;;;5075165;28;20052;-58
2022/06/30 12:07:48;;;;;;;13.55;4.53;;;40.10;79.70;;;;;;5074823;28;20031;-58
2022/06/30 12:10:16;;;;;;;11.43;4.00;;;40.00;79.00;;;;;;5076808;28;20040;-58
2022/06/30 12:12:43;;;;;;;18.08;4.28;;;40.20;78.60;;;;;;5073627;28;20044;-58
2022/06/30 12:15:15;;;;;;;22.65;5.80;;;40.20;78.40;;;;;;5073576;28;20040;-58
2022/06/30 12:17:47;;;;;;;11.98;3.80;;;40.30;81.40;;;;;;5072844;28;20039;-58
2022/06/30 12:20:15;;;;;;;12.73;3.88;;;40.30;80.00;;;;;;5074583;28;20028;-57
2022/06/30 12:22:43;;;;;;;16.90;5.20;;;40.40;78.80;;;;;;5076353;28;20032;-58
2022/06/30 12:25:11;;;;;;;15.27;4.72;;;40.30;78.20;;;;;;5075577;28;20097;-57
2022/06/30 12:27:38;;;;;;;13.98;4.20;;;40.00;78.30;;;;;;5075773;28;20058;-59
2022/06/30 12:30:25;;;;;;;15.30;4.78;;;39.60;78.10;;;;;;5075754;28;20020;-58
2022/06/30 12:32:59;;;;;;;13.40;4.30;;;39.70;78.40;;;;;;5074600;28;20050;-57
2022/06/30 12:35:27;;;;;;;14.65;4.10;;;39.90;78.40;;;;;;5074947;28;20036;-58
2022/06/30 12:37:53;;;;;;;17.35;5.03;;;40.20;78.40;;;;;;5076221;28;20487;-59
2022/06/30 12:40:26;;;;;;;13.13;4.03;;;40.50;79.40;;;;;;5073743;28;20038;-58
2022/06/30 12:42:54;;;;;;;15.07;5.00;;;40.60;79.70;;;;;;5074955;28;20090;-58
2022/06/30 12:45:52;;;;;;;16.38;4.18;;;40.10;77.90;;;;;;5079056;28;20437;-58
2022/06/30 12:48:39;;;;;;;14.75;4.30;;;40.10;78.00;;;;;;5074408;28;20036;-58
2022/06/30 12:51:05;;;;;;;13.50;4.40;;;40.30;78.90;;;;;;5071039;28;20027;-59
2022/06/30 12:53:31;;;;;;;17.55;4.20;;;40.10;77.30;;;;;;5074027;28;20032;-58
2022/06/30 12:56:17;;;;;;;14.65;4.35;;;40.00;78.30;;;;;;5073891;28;20551;-58
2022/06/30 12:58:51;;;;;;;16.45;4.97;;;40.30;78.00;;;;;;5074485;28;20032;-59
2022/06/30 13:01:23;;;;;;;12.95;3.80;;;40.50;78.40;;;;;;5059042;28;20045;-58
2022/06/30 13:03:57;;;;;;;17.92;4.35;;;40.60;78.60;;;;;;5074183;28;20031;-58
2022/06/30 13:06:24;;;;;;;14.68;5.47;;;40.70;77.90;;;;;;5075203;28;20067;-58
2022/06/30 13:08:50;;;;;;;13.15;4.10;;;40.70;77.20;;;;;;5057941;28;20128;-59
2022/06/30 13:11:21;;;;;;;12.98;4.93;;;40.10;77.30;;;;;;5073838;28;20028;-57
2022/06/30 13:13:47;;;;;;;10.20;4.38;;;39.10;77.30;;;;;;5074669;28;20078;-58
2022/06/30 13:16:14;;;;;;;14.88;3.67;;;39.60;78.80;;;;;;5073621;28;20077;-57
2022/06/30 13:18:40;;;;;;;14.52;4.95;;;39.80;77.30;;;;;;5085647;28;20055;-58
2022/06/30 13:21:05;;;;;;;17.48;5.93;;;39.40;77.00;;;;;;5075004;28;20060;-57
2022/06/30 13:23:31;;;;;;;11.02;3.97;;;39.90;77.70;;;;;;5054049;28;20040;-58
2022/06/30 13:25:57;;;;;;;16.67;4.40;;;39.70;78.00;;;;;;5076129;28;20492;-58
2022/06/30 13:28:22;;;;;;;16.45;4.07;;;39.40;78.20;;;;;;5081120;28;20371;-58
2022/06/30 13:30:48;;;;;;;13.65;3.90;;;39.50;79.10;;;;;;5079379;28;20383;-57
2022/06/30 13:33:14;;;;;;;14.93;4.05;;;39.60;79.40;;;;;;5073565;28;20396;-58
2022/06/30 13:35:40;;;;;;;14.73;4.75;;;39.80;80.00;;;;;;5074509;28;20116;-58
2022/06/30 13:38:05;;;;;;;16.50;4.55;;;40.10;80.50;;;;;;5074302;28;20062;-58
2022/06/30 13:40:35;;;;;;;10.60;4.18;;;40.00;79.40;;;;;;5074173;28;20029;-58
2022/06/30 13:43:01;;;;;;;11.80;4.78;;;40.10;79.10;;;;;;5072150;28;20097;-58
2022/06/30 13:45:27;;;;;;;16.38;4.20;;;40.10;80.30;;;;;;5053961;28;20119;-58
2022/06/30 13:47:52;;;;;;;13.70;4.07;;;40.30;80.60;;;;;;5072029;28;20032;-58
2022/06/30 13:50:18;;;;;;;11.20;4.25;;;40.50;80.40;;;;;;5072731;28;20074;-58
2022/06/30 13:52:44;;;;;;;8.82;3.88;;;40.00;79.50;;;;;;5056541;28;20037;-58
2022/06/30 13:55:10;;;;;;;16.95;4.53;;;39.40;78.90;;;;;;5074881;28;20775;-57
2022/06/30 13:57:36;;;;;;;11.25;4.03;;;39.10;80.30;;;;;;5072443;28;20033;-57
2022/06/30 14:00:06;;;;;;;9.40;4.00;;;39.20;79.80;;;;;;5076006;28;20025;-58